Aérodrome :
LOGIN :

S'inscrire | Disclaimer

   EN    FR    IT 

 










Légende :    VFR   VFR Marginal   IFR   IFR Intensif   IFR Très Intensif
Visi : 
Plafond : 
>= 8 km
>= 3000ft
5 à 8 km
1000 à 3000 ft
1500m à 5 km
500 à 1000 ft
800 à 1500m
200 à 500 ft
< 800m
< 200 ft
Symboles :   Orages  Brouillard  Fortes neiges  Fortes précipitations  Vent > 20 kt
SIGMETs :   Divers  Orages  Givrage  Turbulence  Onde Orograph.  Cendres Volcan.






- Altitude de l'aérodrome : 526 ft
- Code IATA : LTN


EGGW - London Luton

DERNIER METAR :
  • 100950Z AUTO 13009KT 9999 NCD 17/08 Q1026

METARs EXPIRÉS :
  • 100920Z AUTO 14007KT 110V170 9999 NCD 15/08 Q1026
  • 100850Z AUTO 14007KT 110V180 9999 NCD 14/08 Q1026
  • 100820Z AUTO 15009KT 9999 NCD 14/08 Q1025
  • 100750Z AUTO 13008KT 9999 NCD 11/08 Q1026
  • 100720Z AUTO 13009KT 8000 NCD 09/07 Q1026

TAF TAF EGGW
Valide du 10 à 06h jusqu'au 11 à 06h UTC


100501Z 1006/1106 12009KT 4000 HZ NSC
BECMG 1006/1009 9999 NSW
TEMPO 1021/1106 6000
ATIS : +44 1582 395 204



MET'MAP, la Météo Aéronautique d'un coup d'oeil ! - Copyright ORBIFLY Décembre 2007 - Disclaimer

ORBIFLY MET'MAP TEAM :

Programmation & Développement : Alexandra Zaïnal
Sur une idée originale de : Baudouin d'Aumeries
Assistance à la programmation : Marc-Olivier Méhu
Soutien technique & logistique : Manuel Goepfert

Contact : metmap@orbifly.com




SOURCES & CREDITS :

   NOAA